Time;durP1;ratioP1;P1;durP2;ratioP2;P2;SDS_P1;SDS_P2;PMS_P1;PMS_P2;Temp;Humidity;BMP_temperature;BMP_pressure;BME280_temperature;BME280_humidity;BME280_pressure;Samples;Min_cycle;Max_cycle;Signal;HPM_P1;HPM_P2
2022/05/30 00:01:11;;;;;;;10.43;5.57;;;10.00;99.90;;;;;;5030600;28;20071;-78
2022/05/30 00:03:37;;;;;;;7.60;5.40;;;9.90;99.90;;;;;;5030607;28;20104;-78
2022/05/30 00:06:09;;;;;;;17.00;6.00;;;9.80;99.90;;;;;;5030540;28;20545;-78
2022/05/30 00:08:35;;;;;;;8.50;5.27;;;9.70;99.90;;;;;;5030587;28;20018;-78
2022/05/30 00:11:03;;;;;;;6.82;4.90;;;9.60;99.90;;;;;;5030489;28;20082;-77
2022/05/30 00:13:31;;;;;;;6.55;5.13;;;9.50;99.90;;;;;;5030366;28;20026;-77
2022/05/30 00:15:56;;;;;;;6.30;5.15;;;9.50;99.90;;;;;;5030559;28;20121;-78
2022/05/30 00:18:22;;;;;;;8.05;4.63;;;9.50;99.90;;;;;;5030359;28;20076;-77
2022/05/30 00:20:48;;;;;;;6.53;4.32;;;9.50;99.90;;;;;;5030307;28;20029;-78
2022/05/30 00:23:14;;;;;;;6.95;4.95;;;9.50;99.90;;;;;;5019271;28;20022;-78
2022/05/30 00:25:41;;;;;;;9.00;4.75;;;9.50;99.90;;;;;;5008961;28;20453;-78
2022/05/30 00:28:07;;;;;;;7.88;5.03;;;9.50;99.90;;;;;;5008996;28;20117;-77
2022/05/30 00:30:32;;;;;;;11.02;5.03;;;9.50;99.90;;;;;;5009275;28;20112;-77
2022/05/30 00:32:58;;;;;;;6.53;4.95;;;9.50;99.90;;;;;;5027967;28;20026;-77
2022/05/30 00:35:24;;;;;;;8.15;4.80;;;9.50;99.90;;;;;;5030332;28;20506;-77
2022/05/30 00:37:49;;;;;;;10.40;4.93;;;9.50;99.90;;;;;;5030128;28;20026;-77
2022/05/30 00:40:15;;;;;;;6.07;4.93;;;9.50;99.90;;;;;;5028845;28;20063;-77
2022/05/30 00:42:40;;;;;;;6.68;4.53;;;9.40;99.90;;;;;;5030423;28;20048;-77
2022/05/30 00:45:07;;;;;;;7.55;5.90;;;9.40;99.90;;;;;;5030004;28;20497;-77
2022/05/30 00:47:33;;;;;;;6.13;5.25;;;9.40;99.90;;;;;;5030163;28;20479;-78
2022/05/30 00:49:58;;;;;;;7.40;6.05;;;9.30;99.90;;;;;;5029884;28;20117;-77
2022/05/30 00:52:38;;;;;;;6.68;4.65;;;9.40;99.90;;;;;;5030175;28;20057;-77
2022/05/30 00:55:18;;;;;;;5.95;4.82;;;9.30;99.90;;;;;;5028682;28;20022;-77
2022/05/30 00:57:47;;;;;;;9.57;5.45;;;9.30;99.90;;;;;;5028666;28;20109;-78
2022/05/30 01:00:20;;;;;;;7.25;5.47;;;9.20;99.90;;;;;;5028399;28;20063;-77
2022/05/30 01:06:30;;;;;;;5.82;5.22;;;9.20;99.90;;;;;;5030031;28;20021;-77
2022/05/30 01:08:29;;;;;;;7.80;4.85;;;9.20;99.90;;;;;;5025161;28;20512;-78
2022/05/30 01:10:55;;;;;;;6.40;5.38;;;9.20;99.90;;;;;;5028391;28;20026;-78
2022/05/30 01:13:21;;;;;;;6.43;4.90;;;9.10;99.90;;;;;;5028443;28;20030;-78
2022/05/30 01:15:46;;;;;;;7.65;5.60;;;9.10;99.90;;;;;;5029642;28;20078;-78
2022/05/30 01:18:12;;;;;;;6.25;5.15;;;9.10;99.90;;;;;;5029737;28;20079;-77
2022/05/30 01:20:52;;;;;;;9.25;6.32;;;9.10;99.90;;;;;;5029523;28;20034;-78
2022/05/30 01:23:26;;;;;;;8.95;5.60;;;9.00;99.90;;;;;;5017773;28;20538;-78
2022/05/30 01:26:42;;;;;;;7.72;5.18;;;9.10;99.90;;;;;;5009791;28;20050;-78
2022/05/30 01:29:23;;;;;;;6.30;4.75;;;9.00;99.90;;;;;;5050393;28;20040;-78
2022/05/30 01:31:49;;;;;;;6.50;5.50;;;9.00;99.90;;;;;;5060117;28;20060;-78
2022/05/30 01:34:14;;;;;;;5.20;4.70;;;9.00;99.90;;;;;;5038135;28;20073;-77
2022/05/30 01:36:40;;;;;;;7.25;5.82;;;8.90;99.90;;;;;;5029659;28;20036;-77
2022/05/30 01:39:06;;;;;;;6.90;5.57;;;9.00;99.90;;;;;;5029449;28;20060;-77
2022/05/30 01:41:32;;;;;;;8.55;5.13;;;8.90;99.90;;;;;;5031499;28;20055;-77
2022/05/30 01:43:57;;;;;;;7.63;5.80;;;8.90;99.90;;;;;;5032666;28;20049;-77
2022/05/30 01:46:24;;;;;;;8.73;5.85;;;8.90;99.90;;;;;;5031308;28;20038;-78
2022/05/30 01:48:50;;;;;;;7.15;5.68;;;8.90;99.90;;;;;;5032660;28;20022;-78
2022/05/30 01:51:18;;;;;;;7.03;5.47;;;8.80;99.90;;;;;;5031346;28;20030;-78
2022/05/30 01:53:44;;;;;;;9.18;6.63;;;8.80;99.90;;;;;;5032681;28;20404;-78
2022/05/30 01:56:09;;;;;;;6.88;5.80;;;8.90;99.90;;;;;;5032447;28;20032;-78
2022/05/30 01:58:35;;;;;;;7.57;6.55;;;8.80;99.90;;;;;;5031338;28;20029;-78
2022/05/30 02:01:22;;;;;;;12.45;6.82;;;8.80;99.90;;;;;;5032427;28;20042;-78
2022/05/30 02:03:49;;;;;;;9.93;6.13;;;8.80;99.90;;;;;;5032868;28;20364;-78
2022/05/30 02:06:15;;;;;;;7.93;6.60;;;8.70;99.90;;;;;;5032260;28;20061;-78
2022/05/30 02:08:41;;;;;;;9.23;6.32;;;8.80;99.90;;;;;;5031120;28;20409;-78
2022/05/30 02:11:10;;;;;;;8.05;6.63;;;8.70;99.90;;;;;;5031012;28;20021;-78
2022/05/30 02:13:37;;;;;;;9.70;6.97;;;8.80;99.90;;;;;;5032607;28;20026;-78
2022/05/30 02:18:50;;;;;;;9.98;6.72;;;8.70;99.90;;;;;;5032494;28;20082;-78
2022/05/30 02:21:15;;;;;;;8.13;5.90;;;8.70;99.90;;;;;;5031967;28;20097;-78
2022/05/30 02:23:41;;;;;;;10.40;7.00;;;8.70;99.90;;;;;;5015598;28;20029;-78
2022/05/30 02:26:07;;;;;;;9.85;6.32;;;8.70;99.90;;;;;;5012131;28;20160;-78
2022/05/30 02:28:32;;;;;;;9.52;6.78;;;8.70;99.90;;;;;;5012279;28;20399;-78
2022/05/30 02:30:58;;;;;;;9.70;6.50;;;8.70;99.90;;;;;;5015220;28;20394;-77
2022/05/30 02:38:52;;;;;;;8.25;6.10;;;8.70;99.90;;;;;;5031968;28;20525;-79
2022/05/30 02:41:20;;;;;;;6.80;5.68;;;8.70;99.90;;;;;;5031721;28;20022;-78
2022/05/30 02:43:46;;;;;;;7.63;5.55;;;8.70;99.90;;;;;;5030457;28;20055;-78
2022/05/30 02:46:12;;;;;;;6.88;6.07;;;8.70;99.90;;;;;;5030337;28;20560;-78
2022/05/30 02:48:38;;;;;;;12.02;5.80;;;8.70;99.90;;;;;;5031652;28;20030;-77
2022/05/30 02:51:03;;;;;;;8.63;5.72;;;8.80;99.90;;;;;;5031568;28;20066;-77
2022/05/30 02:53:29;;;;;;;9.15;5.57;;;8.70;99.90;;;;;;5030519;28;20018;-77
2022/05/30 02:55:56;;;;;;;5.50;5.00;;;8.70;99.90;;;;;;5030259;28;20521;-77
2022/05/30 02:58:21;;;;;;;6.25;5.75;;;8.70;99.90;;;;;;5030328;28;20025;-78
2022/05/30 03:00:47;;;;;;;6.85;6.07;;;8.70;99.90;;;;;;5030198;28;20112;-77
2022/05/30 03:03:12;;;;;;;15.18;5.50;;;8.70;99.90;;;;;;5031456;28;20029;-78
2022/05/30 03:05:38;;;;;;;7.93;5.75;;;8.70;99.90;;;;;;5030156;28;20038;-77
2022/05/30 03:08:08;;;;;;;8.98;6.00;;;8.70;99.90;;;;;;5031495;28;20086;-77
2022/05/30 03:10:34;;;;;;;7.55;5.80;;;8.70;99.90;;;;;;5031373;28;20436;-77
2022/05/30 03:12:59;;;;;;;7.80;5.80;;;8.70;99.90;;;;;;5031442;28;20028;-77
2022/05/30 03:15:25;;;;;;;7.97;6.28;;;8.70;99.90;;;;;;5030165;28;20032;-79
2022/05/30 03:17:51;;;;;;;6.07;5.47;;;8.70;99.90;;;;;;5030289;28;20406;-77
2022/05/30 03:20:18;;;;;;;5.53;5.00;;;8.70;99.90;;;;;;5030034;28;20113;-79
2022/05/30 03:22:44;;;;;;;7.10;5.32;;;8.60;99.90;;;;;;5023389;28;20026;-78
2022/05/30 03:25:10;;;;;;;9.23;5.07;;;8.70;99.90;;;;;;5011130;28;20075;-78
2022/05/30 03:27:36;;;;;;;5.80;4.53;;;8.70;99.90;;;;;;5011331;28;20026;-78
2022/05/30 03:30:03;;;;;;;7.25;5.18;;;8.60;99.90;;;;;;5010126;28;20034;-78
2022/05/30 03:32:29;;;;;;;6.88;5.25;;;8.70;99.90;;;;;;5026841;28;20046;-78
2022/05/30 03:34:54;;;;;;;5.22;4.72;;;8.70;99.90;;;;;;5029854;28;20127;-78
2022/05/30 03:37:20;;;;;;;5.78;5.00;;;8.70;99.90;;;;;;5031055;28;20026;-78
2022/05/30 03:39:46;;;;;;;5.72;4.82;;;8.70;99.90;;;;;;5029913;28;20382;-78
2022/05/30 03:42:14;;;;;;;6.65;5.43;;;8.70;99.90;;;;;;5030870;28;20036;-78
2022/05/30 03:44:41;;;;;;;5.07;4.60;;;8.80;99.90;;;;;;5029642;28;20051;-78
2022/05/30 03:47:07;;;;;;;6.57;5.10;;;8.70;99.90;;;;;;5030604;28;20040;-78
2022/05/30 03:49:32;;;;;;;5.72;5.20;;;8.70;99.90;;;;;;5030804;28;20101;-78
2022/05/30 03:51:59;;;;;;;5.88;5.25;;;8.80;99.90;;;;;;5030911;28;20100;-78
2022/05/30 03:54:26;;;;;;;6.10;4.63;;;8.90;99.90;;;;;;5029576;28;20025;-78
2022/05/30 03:56:51;;;;;;;5.75;5.18;;;8.90;99.90;;;;;;5030813;28;20025;-77
2022/05/30 03:59:17;;;;;;;5.68;5.07;;;9.00;99.90;;;;;;5030664;28;20469;-78
2022/05/30 04:01:42;;;;;;;6.05;5.00;;;9.00;99.90;;;;;;5028784;28;20075;-77
2022/05/30 04:04:08;;;;;;;5.40;4.88;;;9.00;99.90;;;;;;5030579;28;20067;-78
2022/05/30 04:06:33;;;;;;;9.85;6.40;;;9.10;99.90;;;;;;5030549;28;20440;-77
2022/05/30 04:08:59;;;;;;;5.53;4.88;;;9.10;99.90;;;;;;5030442;28;20055;-77
2022/05/30 04:11:25;;;;;;;6.32;5.35;;;9.10;99.90;;;;;;5030491;28;20478;-77
2022/05/30 04:13:50;;;;;;;6.22;4.88;;;9.10;99.90;;;;;;5030849;28;20025;-77
2022/05/30 04:16:16;;;;;;;5.00;4.30;;;9.20;99.90;;;;;;5030261;28;20028;-77
2022/05/30 04:18:42;;;;;;;4.63;4.18;;;9.20;99.90;;;;;;5029186;28;20028;-78
2022/05/30 04:21:10;;;;;;;4.82;4.03;;;9.10;99.90;;;;;;5030486;28;20174;-77
2022/05/30 04:23:37;;;;;;;5.53;4.80;;;9.20;99.90;;;;;;5013673;28;20121;-77
2022/05/30 04:26:05;;;;;;;6.18;4.60;;;9.20;99.90;;;;;;5010409;28;20067;-77
2022/05/30 04:28:31;;;;;;;5.88;4.00;;;9.30;99.90;;;;;;5009262;28;20112;-78
2022/05/30 04:30:56;;;;;;;4.10;3.80;;;9.30;99.90;;;;;;5013951;28;20530;-77
2022/05/30 04:33:22;;;;;;;4.88;4.13;;;9.30;99.90;;;;;;5030190;28;20050;-77
2022/05/30 04:35:47;;;;;;;4.68;3.58;;;9.40;99.90;;;;;;5029475;28;20026;-78
2022/05/30 04:38:13;;;;;;;3.90;3.35;;;9.40;99.90;;;;;;5028835;28;20032;-78
2022/05/30 04:40:38;;;;;;;4.70;4.30;;;9.50;99.90;;;;;;5030527;28;20026;-78
2022/05/30 04:43:04;;;;;;;4.30;3.50;;;9.50;99.90;;;;;;5030158;28;20125;-77
2022/05/30 04:45:30;;;;;;;4.32;3.88;;;9.50;99.90;;;;;;5030108;28;20042;-77
2022/05/30 04:47:55;;;;;;;6.05;5.25;;;9.60;99.90;;;;;;5028877;28;20371;-77
2022/05/30 04:50:21;;;;;;;4.57;3.72;;;9.60;99.90;;;;;;5028737;28;20022;-78
2022/05/30 04:52:47;;;;;;;4.10;3.70;;;9.60;99.90;;;;;;5028480;28;20030;-78
2022/05/30 04:55:15;;;;;;;4.75;4.32;;;9.70;99.90;;;;;;5028710;28;20026;-77
2022/05/30 04:57:46;;;;;;;3.70;3.45;;;9.70;99.90;;;;;;5028610;28;20022;-78
2022/05/30 05:00:14;;;;;;;5.72;4.15;;;9.70;99.90;;;;;;5029967;28;20029;-78
2022/05/30 05:02:39;;;;;;;5.05;4.38;;;9.60;99.90;;;;;;5029735;28;20030;-78
2022/05/30 05:05:06;;;;;;;4.90;4.40;;;9.60;99.90;;;;;;5018907;28;20037;-78
2022/05/30 05:08:00;;;;;;;4.97;4.50;;;9.70;99.90;;;;;;5021324;28;20033;-78
2022/05/30 05:10:31;;;;;;;4.35;3.90;;;9.70;99.90;;;;;;5029638;28;20470;-78
2022/05/30 05:12:57;;;;;;;3.67;3.47;;;9.50;99.90;;;;;;5029703;28;20061;-78
2022/05/30 05:15:23;;;;;;;5.82;4.10;;;9.50;99.90;;;;;;5024938;28;20057;-78
2022/05/30 05:17:48;;;;;;;4.63;4.15;;;9.40;99.90;;;;;;5019436;28;20110;-77
2022/05/30 05:20:14;;;;;;;4.72;3.70;;;9.40;99.90;;;;;;5015532;28;20075;-78
2022/05/30 05:22:40;;;;;;;4.97;4.05;;;9.30;99.90;;;;;;5030331;28;20021;-79
2022/05/30 05:25:06;;;;;;;6.07;3.58;;;9.40;99.90;;;;;;5017264;28;20022;-77
2022/05/30 05:27:32;;;;;;;4.70;3.60;;;9.40;99.90;;;;;;5027103;28;20030;-78
2022/05/30 05:29:57;;;;;;;4.35;3.97;;;9.50;99.90;;;;;;5018560;28;20037;-78
2022/05/30 05:32:23;;;;;;;5.10;3.83;;;9.50;99.90;;;;;;5023669;28;20030;-80
2022/05/30 05:34:50;;;;;;;5.75;4.53;;;9.40;99.90;;;;;;5028523;28;20395;-81
2022/05/30 05:37:16;;;;;;;4.28;3.88;;;9.50;99.90;;;;;;5025078;28;20065;-78
2022/05/30 05:39:42;;;;;;;6.00;4.75;;;9.60;99.90;;;;;;5019723;28;20037;-79
2022/05/30 05:42:09;;;;;;;4.05;3.38;;;9.70;99.90;;;;;;5023610;28;20093;-81
2022/05/30 05:44:34;;;;;;;4.18;3.78;;;9.80;99.90;;;;;;5015211;28;20034;-77
2022/05/30 05:47:00;;;;;;;5.00;3.35;;;9.90;99.90;;;;;;5011742;28;20033;-79
2022/05/30 05:49:26;;;;;;;6.85;3.80;;;9.90;99.90;;;;;;5012306;28;20029;-82
2022/05/30 05:51:56;;;;;;;4.00;3.70;;;9.90;99.90;;;;;;5012713;28;20030;-79
2022/05/30 05:54:23;;;;;;;3.90;3.45;;;10.00;99.90;;;;;;5011372;28;20509;-78
2022/05/30 05:56:49;;;;;;;4.10;3.72;;;9.90;99.90;;;;;;5021080;28;20386;-78
2022/05/30 05:59:15;;;;;;;5.63;4.22;;;9.90;99.90;;;;;;5022270;28;20559;-78
2022/05/30 06:01:41;;;;;;;5.35;4.38;;;9.80;99.90;;;;;;5018308;28;20067;-78
2022/05/30 06:04:08;;;;;;;4.53;4.10;;;9.70;99.90;;;;;;5019265;28;20363;-79
2022/05/30 06:06:34;;;;;;;4.68;3.70;;;9.60;99.90;;;;;;5019452;28;20449;-81
2022/05/30 06:09:01;;;;;;;5.68;4.80;;;9.60;99.90;;;;;;5017907;28;20022;-79
2022/05/30 06:11:28;;;;;;;4.38;4.00;;;9.70;99.90;;;;;;5018421;28;20522;-78
2022/05/30 06:13:54;;;;;;;4.32;3.63;;;9.70;99.90;;;;;;5020065;28;20113;-79
2022/05/30 06:16:27;;;;;;;6.22;4.05;;;9.70;99.90;;;;;;5021332;28;20018;-78
2022/05/30 06:18:56;;;;;;;5.30;4.45;;;9.80;99.90;;;;;;5020608;28;20042;-81
2022/05/30 06:21:23;;;;;;;4.70;4.18;;;9.90;99.90;;;;;;5021947;28;20044;-78
2022/05/30 06:23:49;;;;;;;6.00;4.45;;;10.00;99.90;;;;;;5019587;28;20022;-82
2022/05/30 06:26:15;;;;;;;6.35;4.78;;;10.00;99.90;;;;;;5021924;28;20045;-81
2022/05/30 06:28:42;;;;;;;6.32;5.03;;;9.90;99.90;;;;;;5021200;28;20037;-79
2022/05/30 06:31:10;;;;;;;8.20;4.75;;;10.00;99.90;;;;;;5019639;28;20495;-82
2022/05/30 06:33:36;;;;;;;4.50;4.07;;;9.90;99.90;;;;;;5031835;28;20026;-82
2022/05/30 06:36:03;;;;;;;5.70;4.20;;;10.00;99.90;;;;;;5027011;28;20053;-78
2022/05/30 06:38:29;;;;;;;4.40;3.58;;;10.20;99.90;;;;;;5019904;28;20032;-79
2022/05/30 06:40:55;;;;;;;6.05;4.10;;;10.20;99.90;;;;;;5020736;28;20474;-79
2022/05/30 06:43:20;;;;;;;4.35;3.72;;;10.10;99.90;;;;;;5010805;28;20022;-78
2022/05/30 06:45:47;;;;;;;6.05;4.57;;;10.20;99.90;;;;;;5010691;28;20125;-78
2022/05/30 06:48:14;;;;;;;6.57;5.50;;;10.20;99.90;;;;;;5011950;28;20029;-81
2022/05/30 06:50:40;;;;;;;8.50;5.40;;;10.10;99.90;;;;;;5011715;28;20467;-79
2022/05/30 06:53:06;;;;;;;7.47;5.43;;;10.10;99.90;;;;;;5010511;28;20051;-81
2022/05/30 06:55:32;;;;;;;7.65;5.47;;;10.10;99.90;;;;;;5010482;28;20018;-81
2022/05/30 06:58:13;;;;;;;6.13;5.53;;;10.10;99.90;;;;;;5011931;28;20387;-80
2022/05/30 07:00:39;;;;;;;7.40;6.30;;;10.00;99.90;;;;;;5010697;28;20390;-80
2022/05/30 07:03:05;;;;;;;7.68;6.90;;;10.00;99.90;;;;;;5011333;28;20022;-81
2022/05/30 07:05:30;;;;;;;7.78;6.20;;;10.00;99.90;;;;;;5009798;28;20120;-82
2022/05/30 07:07:56;;;;;;;10.85;7.32;;;10.00;99.90;;;;;;5010230;28;20060;-79
2022/05/30 07:10:23;;;;;;;11.13;7.80;;;9.90;99.90;;;;;;5010499;28;20036;-78
2022/05/30 07:12:49;;;;;;;8.82;6.45;;;9.90;99.90;;;;;;5011358;28;20025;-79
2022/05/30 07:15:15;;;;;;;10.13;8.45;;;9.90;99.90;;;;;;5010475;28;20018;-79
2022/05/30 07:17:41;;;;;;;8.23;7.22;;;9.90;99.90;;;;;;5010493;28;20052;-79
2022/05/30 07:20:07;;;;;;;11.23;8.68;;;10.00;99.90;;;;;;5010228;28;20026;-78
2022/05/30 07:22:33;;;;;;;10.45;8.65;;;10.00;99.90;;;;;;5019175;28;20022;-78
2022/05/30 07:24:59;;;;;;;12.65;7.57;;;10.00;99.90;;;;;;5029665;28;20133;-79
2022/05/30 07:27:24;;;;;;;10.65;7.43;;;10.00;99.90;;;;;;5031244;28;20025;-79
2022/05/30 07:29:50;;;;;;;8.60;6.80;;;10.00;99.90;;;;;;5023973;28;20026;-79
2022/05/30 07:32:16;;;;;;;12.45;7.38;;;10.00;99.90;;;;;;5015054;28;20508;-79
2022/05/30 07:34:42;;;;;;;9.55;6.85;;;10.00;99.90;;;;;;5010419;28;20479;-79
2022/05/30 07:37:08;;;;;;;7.97;6.95;;;10.00;99.90;;;;;;5018205;28;20022;-79
2022/05/30 07:39:38;;;;;;;8.38;6.55;;;10.10;99.90;;;;;;5030079;28;20475;-79
2022/05/30 07:42:05;;;;;;;9.15;6.80;;;10.10;99.90;;;;;;5029028;28;20026;-79
2022/05/30 07:44:30;;;;;;;10.63;7.40;;;10.20;99.90;;;;;;5030042;28;20052;-79
2022/05/30 07:46:56;;;;;;;9.02;7.57;;;10.40;99.90;;;;;;5028818;28;20064;-79
2022/05/30 07:49:22;;;;;;;8.75;7.35;;;10.40;99.90;;;;;;5029876;28;20021;-79
2022/05/30 07:51:48;;;;;;;8.43;6.65;;;10.50;99.90;;;;;;5030842;28;20017;-79
2022/05/30 07:54:13;;;;;;;9.60;7.40;;;10.60;99.90;;;;;;5029629;28;20032;-78
2022/05/30 07:56:39;;;;;;;7.32;5.78;;;10.70;99.90;;;;;;5029007;28;20382;-79
2022/05/30 07:59:05;;;;;;;8.77;7.15;;;10.70;99.90;;;;;;5029273;28;20029;-78
2022/05/30 08:01:31;;;;;;;8.93;8.02;;;10.90;99.90;;;;;;5029454;28;20382;-77
2022/05/30 08:03:56;;;;;;;7.90;7.10;;;11.20;99.90;;;;;;5030583;28;20029;-78
2022/05/30 08:06:26;;;;;;;6.88;6.25;;;11.50;99.90;;;;;;5030460;28;20037;-78
2022/05/30 08:08:52;;;;;;;6.20;5.55;;;11.70;99.90;;;;;;5029411;28;20026;-78
2022/05/30 08:11:18;;;;;;;5.70;5.20;;;11.70;99.90;;;;;;5024262;28;20026;-78
2022/05/30 08:13:47;;;;;;;9.43;5.82;;;11.50;99.90;;;;;;5028555;28;20378;-79
2022/05/30 08:16:19;;;;;;;7.18;6.38;;;11.40;99.90;;;;;;5028244;28;20053;-79
2022/05/30 08:18:44;;;;;;;7.80;6.13;;;11.40;99.90;;;;;;5029728;28;20025;-78
2022/05/30 08:21:10;;;;;;;8.55;6.55;;;11.30;99.90;;;;;;5029587;28;20030;-78
2022/05/30 08:23:36;;;;;;;6.55;5.88;;;11.20;99.90;;;;;;5023376;28;20029;-78
2022/05/30 08:26:02;;;;;;;6.68;6.07;;;11.20;99.90;;;;;;5027917;28;20053;-78
2022/05/30 08:28:29;;;;;;;8.23;6.50;;;11.20;99.90;;;;;;5029549;28;20491;-78
2022/05/30 08:30:54;;;;;;;6.97;6.38;;;11.30;99.90;;;;;;5024813;28;20014;-78
2022/05/30 08:33:21;;;;;;;7.50;6.35;;;11.50;99.90;;;;;;5021958;28;20033;-78
2022/05/30 08:35:57;;;;;;;7.18;6.30;;;11.80;99.90;;;;;;5028805;28;20028;-79
2022/05/30 08:38:23;;;;;;;7.75;6.53;;;12.10;99.90;;;;;;5028985;28;20060;-78
2022/05/30 08:43:36;;;;;;;6.55;5.90;;;12.60;99.90;;;;;;5030592;28;20149;-78
2022/05/30 08:46:58;;;;;;;7.20;5.25;;;13.30;99.90;;;;;;5030043;28;20112;-78
2022/05/30 08:49:49;;;;;;;5.15;4.25;;;13.40;99.90;;;;;;5074603;28;20037;-78
2022/05/30 08:52:38;;;;;;;3.95;3.53;;;13.40;98.50;;;;;;5043257;28;20036;-75
2022/05/30 08:55:19;;;;;;;5.25;4.00;;;13.20;93.40;;;;;;5029048;28;20119;-78
2022/05/30 08:58:10;;;;;;;5.68;4.20;;;13.10;98.60;;;;;;5032776;28;20040;-78
2022/05/30 09:00:59;;;;;;;7.10;6.05;;;13.00;99.70;;;;;;5014239;28;20079;-78
2022/05/30 09:03:43;;;;;;;5.50;4.72;;;12.70;99.90;;;;;;5011885;28;20521;-78
2022/05/30 09:06:18;;;;;;;3.83;3.47;;;12.30;99.90;;;;;;5029144;28;20033;-78
2022/05/30 09:08:53;;;;;;;4.88;4.10;;;12.20;99.90;;;;;;5033430;28;20053;-78
2022/05/30 09:11:25;;;;;;;8.98;3.70;;;12.10;99.90;;;;;;5032271;28;20426;-78
2022/05/30 09:13:52;;;;;;;4.50;4.10;;;11.90;99.90;;;;;;5013025;28;20030;-78
2022/05/30 09:16:41;;;;;;;6.05;3.67;;;11.90;99.90;;;;;;5012604;28;20029;-78
2022/05/30 09:19:09;;;;;;;8.80;5.32;;;12.00;99.90;;;;;;5024096;28;20069;-77
2022/05/30 09:21:36;;;;;;;6.40;4.32;;;11.90;99.90;;;;;;5012516;28;20475;-78
2022/05/30 09:24:02;;;;;;;8.38;5.60;;;12.00;99.90;;;;;;5027414;28;20017;-78
2022/05/30 09:26:35;;;;;;;7.70;5.40;;;12.00;99.90;;;;;;5029562;28;20426;-77
2022/05/30 09:29:04;;;;;;;28.70;14.68;;;12.00;99.90;;;;;;5027829;28;20018;-78
2022/05/30 09:31:35;;;;;;;78.45;41.33;;;12.00;99.90;;;;;;5020607;28;20009;-78
2022/05/30 09:34:29;;;;;;;27.88;19.40;;;12.20;99.90;;;;;;5032261;28;20094;-78
2022/05/30 09:36:55;;;;;;;11.30;9.10;;;12.40;99.90;;;;;;5030845;28;20033;-78
2022/05/30 09:39:20;;;;;;;9.15;6.15;;;12.40;99.90;;;;;;5030929;28;20029;-78
2022/05/30 09:41:54;;;;;;;10.20;5.93;;;12.50;99.90;;;;;;5032603;28;20037;-77
2022/05/30 09:44:38;;;;;;;9.13;7.25;;;12.70;99.90;;;;;;5031755;28;20029;-78
2022/05/30 09:47:18;;;;;;;8.55;6.07;;;12.90;99.60;;;;;;5031329;28;20033;-78
2022/05/30 09:49:46;;;;;;;7.70;5.80;;;13.10;99.90;;;;;;5032814;28;20021;-78
2022/05/30 09:52:33;;;;;;;5.70;5.07;;;13.30;99.90;;;;;;5019603;28;20086;-78
2022/05/30 09:54:59;;;;;;;12.60;8.38;;;13.40;94.00;;;;;;5030932;28;20475;-78
2022/05/30 09:57:41;;;;;;;16.77;11.27;;;13.40;93.00;;;;;;5028465;28;20505;-78
2022/05/30 10:00:18;;;;;;;14.73;8.35;;;13.50;94.70;;;;;;5019007;28;20029;-78
2022/05/30 10:02:45;;;;;;;25.52;5.82;;;13.40;95.20;;;;;;5020936;28;20039;-78
2022/05/30 10:05:14;;;;;;;8.07;4.85;;;13.30;89.80;;;;;;5013109;28;20383;-81
2022/05/30 10:07:57;;;;;;;28.40;16.20;;;13.20;93.70;;;;;;5011367;28;20487;-78
2022/05/30 10:10:31;;;;;;;19.80;11.68;;;13.30;94.50;;;;;;5058904;27;20406;-78
2022/05/30 10:13:01;;;;;;;18.95;10.63;;;13.40;94.30;;;;;;5031385;28;20408;-78
2022/05/30 10:15:39;;;;;;;25.13;13.50;;;13.80;93.30;;;;;;5032064;28;20391;-78
2022/05/30 10:18:13;;;;;;;6.57;5.10;;;14.40;96.20;;;;;;5012784;28;20047;-78
2022/05/30 10:20:51;;;;;;;11.93;6.80;;;14.70;89.70;;;;;;5011176;28;20056;-78
2022/05/30 10:30:04;;;;;;;6.20;3.97;;;14.20;81.00;;;;;;5032495;28;20099;-78
2022/05/30 10:32:39;;;;;;;3.05;2.85;;;14.10;84.10;;;;;;5012500;28;20055;-79
2022/05/30 10:35:30;;;;;;;3.05;2.65;;;14.10;85.50;;;;;;5012356;28;20036;-78
2022/05/30 10:38:13;;;;;;;2.60;2.40;;;14.20;75.60;;;;;;5011035;28;20083;-78
2022/05/30 10:41:07;;;;;;;4.15;2.70;;;14.20;75.60;;;;;;5012464;28;20025;-78
2022/05/30 10:43:40;;;;;;;4.00;2.58;;;14.00;72.70;;;;;;5012301;28;20026;-79
2022/05/30 10:46:10;;;;;;;3.03;2.83;;;14.00;72.20;;;;;;5010988;28;20627;-78
2022/05/30 10:48:45;;;;;;;3.22;2.92;;;14.10;74.20;;;;;;5012378;28;20372;-79
2022/05/30 10:51:22;;;;;;;4.88;3.40;;;14.10;75.20;;;;;;5012226;28;20379;-78
2022/05/30 10:54:04;;;;;;;4.15;3.25;;;14.10;77.10;;;;;;5010831;28;20022;-79
2022/05/30 10:56:39;;;;;;;3.80;2.78;;;14.00;78.90;;;;;;5012060;28;20022;-78
2022/05/30 10:59:27;;;;;;;7.10;3.67;;;14.10;80.80;;;;;;5010585;28;20063;-79
2022/05/30 11:02:05;;;;;;;2.83;2.63;;;14.00;80.40;;;;;;5010805;28;20391;-78
2022/05/30 11:04:39;;;;;;;3.88;3.15;;;14.00;79.10;;;;;;5011885;28;20089;-79
2022/05/30 11:07:32;;;;;;;3.55;2.70;;;14.30;81.80;;;;;;5011924;28;20048;-79
2022/05/30 11:10:32;;;;;;;3.22;3.03;;;14.40;76.00;;;;;;5010707;28;20036;-79
2022/05/30 11:13:02;;;;;;;3.60;3.30;;;14.40;74.70;;;;;;5011770;28;20394;-79
2022/05/30 11:15:34;;;;;;;2.97;2.75;;;14.50;72.90;;;;;;5010533;28;20026;-78
2022/05/30 11:18:09;;;;;;;4.72;3.22;;;14.50;75.30;;;;;;5010481;28;20022;-78
2022/05/30 11:20:50;;;;;;;5.25;2.67;;;14.40;77.70;;;;;;5010494;28;20022;-78
2022/05/30 11:23:18;;;;;;;3.63;2.75;;;14.40;75.90;;;;;;5024844;28;20029;-79
2022/05/30 11:25:58;;;;;;;3.00;2.85;;;14.50;72.50;;;;;;5029734;28;20128;-79
2022/05/30 11:28:42;;;;;;;3.33;2.70;;;14.50;68.40;;;;;;5031204;28;20093;-79
2022/05/30 11:31:27;;;;;;;4.70;3.58;;;15.00;69.30;;;;;;5023956;28;20105;-79
2022/05/30 11:34:08;;;;;;;3.03;2.28;;;15.30;67.00;;;;;;5010297;28;20018;-79
2022/05/30 11:37:04;;;;;;;3.92;2.83;;;15.60;63.40;;;;;;5010346;28;20551;-79
2022/05/30 11:39:32;;;;;;;2.83;2.40;;;15.80;65.70;;;;;;5011489;28;20037;-79
2022/05/30 11:42:20;;;;;;;2.55;2.40;;;15.60;68.00;;;;;;5011425;28;20443;-78
2022/05/30 11:45:16;;;;;;;3.00;2.78;;;15.20;71.60;;;;;;5011195;28;20030;-79
2022/05/30 11:48:05;;;;;;;3.15;2.95;;;15.10;69.20;;;;;;5010849;28;20073;-79
2022/05/30 11:51:19;;;;;;;5.25;3.92;;;15.10;69.50;;;;;;5011341;28;20483;-79
2022/05/30 11:54:03;;;;;;;;;;;15.00;67.10;;;;;;5015216;28;20034;-78
2022/05/30 11:56:43;;;;;;;3.33;3.03;;;14.90;69.20;;;;;;5014462;28;19905;-79
2022/05/30 11:59:31;;;;;;;3.92;3.22;;;14.80;68.80;;;;;;5013742;28;20045;-79
2022/05/30 12:01:59;;;;;;;4.00;3.60;;;14.90;69.50;;;;;;5009129;28;20046;-77
2022/05/30 12:04:34;;;;;;;4.10;3.70;;;15.10;71.60;;;;;;5026351;28;20026;-79
2022/05/30 12:07:34;;;;;;;4.97;4.47;;;15.10;69.80;;;;;;5027669;28;20042;-79
2022/05/30 12:10:34;;;;;;;4.28;3.88;;;15.20;65.20;;;;;;5014379;28;20560;-78
2022/05/30 12:13:16;;;;;;;4.13;3.80;;;15.40;64.10;;;;;;5020465;28;20395;-78
2022/05/30 12:16:02;;;;;;;4.57;4.18;;;15.70;65.30;;;;;;5018854;28;20070;-78
2022/05/30 12:24:19;;;;;;;3.55;2.65;;;15.50;66.70;;;;;;5018735;28;20514;-78
2022/05/30 12:26:53;;;;;;;2.55;2.42;;;15.50;67.00;;;;;;5017575;28;20084;-79
2022/05/30 12:29:37;;;;;;;2.17;2.08;;;15.50;69.00;;;;;;5019347;28;20029;-79
2022/05/30 12:32:29;;;;;;;3.33;3.00;;;15.30;67.90;;;;;;5019964;28;20096;-78
2022/05/30 12:34:58;;;;;;;3.57;2.93;;;15.10;68.50;;;;;;5020472;28;20540;-78
2022/05/30 12:37:43;;;;;;;6.40;4.05;;;15.30;70.30;;;;;;5065749;28;20026;-78
2022/05/30 12:40:27;;;;;;;3.70;3.40;;;15.20;67.60;;;;;;5019157;28;20025;-79
2022/05/30 12:43:15;;;;;;;4.68;4.18;;;15.40;67.90;;;;;;5020743;28;20029;-78
2022/05/30 12:46:07;;;;;;;5.07;4.57;;;15.60;67.50;;;;;;5016548;28;20034;-78
2022/05/30 12:48:55;;;;;;;5.90;5.30;;;15.60;67.40;;;;;;5009389;28;20060;-78
2022/05/30 12:51:37;;;;;;;9.38;5.68;;;15.90;65.90;;;;;;5043631;28;20479;-78
2022/05/30 12:54:02;;;;;;;9.18;5.57;;;15.80;64.20;;;;;;5015506;28;20041;-79
2022/05/30 12:56:37;;;;;;;6.82;5.40;;;15.90;63.30;;;;;;5022225;28;20018;-79
2022/05/30 12:59:02;;;;;;;8.15;6.20;;;16.10;65.70;;;;;;5013972;28;20056;-79
2022/05/30 13:01:48;;;;;;;8.48;6.72;;;16.40;64.90;;;;;;5022091;28;20022;-78
2022/05/30 13:04:24;;;;;;;14.07;9.02;;;16.30;63.40;;;;;;5022035;28;20478;-79
2022/05/30 13:07:01;;;;;;;12.98;6.70;;;16.20;62.80;;;;;;5023667;28;20037;-79
2022/05/30 13:09:40;;;;;;;7.45;4.38;;;16.10;63.10;;;;;;5021582;28;20034;-79
2022/05/30 13:12:12;;;;;;;6.50;4.43;;;15.90;63.10;;;;;;5025184;28;20038;-79
2022/05/30 13:14:40;;;;;;;5.68;4.45;;;15.70;63.70;;;;;;5019558;28;20079;-80
2022/05/30 13:17:18;;;;;;;4.97;4.30;;;15.90;62.90;;;;;;5010930;28;20037;-79
2022/05/30 13:19:55;;;;;;;6.20;5.65;;;16.10;64.00;;;;;;5017674;28;20038;-79
2022/05/30 13:22:31;;;;;;;7.30;4.93;;;16.20;60.30;;;;;;5024233;28;20103;-79
2022/05/30 13:24:57;;;;;;;5.53;4.93;;;16.60;61.20;;;;;;5024051;28;20125;-78
2022/05/30 13:27:26;;;;;;;6.15;5.55;;;16.60;61.40;;;;;;5023652;28;20562;-80
2022/05/30 13:29:51;;;;;;;8.93;6.30;;;16.70;60.70;;;;;;5024135;28;20466;-79
2022/05/30 13:32:21;;;;;;;14.93;7.70;;;16.80;60.20;;;;;;5024529;28;20093;-78
2022/05/30 13:34:57;;;;;;;10.35;6.55;;;16.70;59.40;;;;;;5020125;28;20033;-79
2022/05/30 13:37:25;;;;;;;6.30;5.18;;;16.40;59.50;;;;;;5046993;28;20033;-79